createdAt,value
2022-12-11T00:00:55.932Z,99154.41
2022-12-11T00:03:24.121Z,99150.09
2022-12-11T00:05:52.110Z,99158.69
2022-12-11T00:08:20.107Z,99169.19
2022-12-11T00:10:50.038Z,99172.31
2022-12-11T00:13:18.176Z,99177.97
2022-12-11T00:15:45.736Z,99185.56
2022-12-11T00:18:15.131Z,99183.94
2022-12-11T00:20:43.207Z,99178.97
2022-12-11T00:23:11.769Z,99177.88
2022-12-11T00:25:47.657Z,99184.53
2022-12-11T00:28:19.526Z,99190.66
2022-12-11T00:30:48.527Z,99177.97
2022-12-11T00:33:16.567Z,99178.34
2022-12-11T00:35:48.484Z,99178.53
2022-12-11T00:38:18.861Z,99183.69
2022-12-11T00:40:46.730Z,99179.44
2022-12-11T00:43:15.415Z,99184.06
2022-12-11T00:45:45.172Z,99186.59
2022-12-11T00:48:13.803Z,99192.84
2022-12-11T00:50:43.189Z,99199.69
2022-12-11T00:53:11.765Z,99188.16
2022-12-11T00:55:41.436Z,99200.88
2022-12-11T00:58:09.732Z,99200.59
2022-12-11T01:00:38.525Z,99208.84
2022-12-11T01:03:07.179Z,99201.44
2022-12-11T01:05:35.394Z,99207.50
2022-12-11T01:08:04.824Z,99206.91
2022-12-11T01:10:33.747Z,99214.34
2022-12-11T01:13:04.011Z,99212.66
2022-12-11T01:15:41.573Z,99210.66
2022-12-11T01:18:14.483Z,99206.66
2022-12-11T01:20:43.407Z,99203.59
2022-12-11T01:23:13.543Z,99207.22
2022-12-11T01:25:42.434Z,99223.41
2022-12-11T01:28:10.646Z,99210.84
2022-12-11T01:30:40.819Z,99220.69
2022-12-11T01:33:09.325Z,99216.16
2022-12-11T01:35:38.455Z,99222.63
2022-12-11T01:38:06.278Z,99223.34
2022-12-11T01:40:34.003Z,99229.44
2022-12-11T01:43:01.943Z,99230.50
2022-12-11T01:45:40.665Z,99227.94
2022-12-11T01:48:10.858Z,99232.03
2022-12-11T01:50:44.248Z,99230.91
2022-12-11T01:53:16.346Z,99233.81
2022-12-11T01:55:46.290Z,99234.31
2022-12-11T01:58:16.487Z,99235.31
2022-12-11T02:00:44.418Z,99233.88
2022-12-11T02:03:12.283Z,99228.25
2022-12-11T02:05:40.205Z,99227.59
2022-12-11T02:08:08.656Z,99238.50
2022-12-11T02:11:06.167Z,99244.09
2022-12-11T02:13:44.093Z,99240.59
2022-12-11T02:16:21.463Z,99245.53
2022-12-11T02:18:54.933Z,99241.50
2022-12-11T02:21:33.170Z,99247.69
2022-12-11T02:24:21.944Z,99249.53
2022-12-11T02:27:25.810Z,99252.75
2022-12-11T02:30:10.394Z,99253.53
2022-12-11T02:32:52.957Z,99256.19
2022-12-11T02:35:35.917Z,99243.53
2022-12-11T02:38:09.025Z,99252.16
2022-12-11T02:40:40.174Z,99244.94
2022-12-11T02:43:11.750Z,99240.53
2022-12-11T02:45:41.994Z,99243.72
2022-12-11T02:48:11.755Z,99246.41
2022-12-11T02:50:44.572Z,99241.44
2022-12-11T02:53:16.299Z,99225.50
2022-12-11T02:55:45.538Z,99227.09
2022-12-11T02:58:23.748Z,99224.25
2022-12-11T03:00:51.953Z,99230.72
2022-12-11T03:03:20.000Z,99223.28
2022-12-11T03:05:48.139Z,99232.72
2022-12-11T03:08:18.781Z,99224.00
2022-12-11T03:10:46.769Z,99222.06
2022-12-11T03:13:20.581Z,99232.34
2022-12-11T03:16:06.099Z,99222.78
2022-12-11T03:18:43.256Z,99228.84
2022-12-11T03:21:35.495Z,99236.13
2022-12-11T03:24:12.831Z,99239.84
2022-12-11T03:26:47.501Z,99241.09
2022-12-11T03:29:21.728Z,99246.91
2022-12-11T03:32:01.049Z,99254.47
2022-12-11T03:34:40.686Z,99261.56
2022-12-11T03:37:10.838Z,99256.38
2022-12-11T03:39:43.921Z,99251.53
2022-12-11T03:42:15.267Z,99261.59
2022-12-11T03:44:46.434Z,99258.16
2022-12-11T03:47:19.020Z,99269.13
2022-12-11T03:49:48.633Z,99266.47
2022-12-11T03:52:17.722Z,99262.06
2022-12-11T03:54:49.352Z,99273.03
2022-12-11T03:57:22.868Z,99273.16
2022-12-11T03:59:51.085Z,99275.81
2022-12-11T04:02:19.082Z,99284.63
2022-12-11T04:04:47.060Z,99282.72
2022-12-11T04:07:15.220Z,99285.81
2022-12-11T04:09:43.272Z,99286.22
2022-12-11T04:12:11.247Z,99285.09
2022-12-11T04:14:57.361Z,99285.19
2022-12-11T04:17:43.640Z,99287.34
2022-12-11T04:20:30.265Z,99289.69
2022-12-11T04:23:16.478Z,99294.13
2022-12-11T04:25:44.434Z,99296.13
2022-12-11T04:28:12.436Z,99299.44
2022-12-11T04:30:40.357Z,99301.88
2022-12-11T04:33:08.366Z,99301.72
2022-12-11T04:35:36.602Z,99306.78
2022-12-11T04:38:04.782Z,99290.91
2022-12-11T04:40:32.688Z,99291.97
2022-12-11T04:43:00.527Z,99285.16
2022-12-11T04:45:28.522Z,99288.28
2022-12-11T04:47:56.461Z,99285.06
2022-12-11T04:50:24.292Z,99286.59
2022-12-11T04:52:55.404Z,99297.91
2022-12-11T04:55:23.944Z,99299.72
2022-12-11T04:57:52.029Z,99300.75
2022-12-11T05:00:20.164Z,99298.22
2022-12-11T05:02:48.168Z,99292.63
2022-12-11T05:05:15.922Z,99290.91
2022-12-11T05:07:44.153Z,99287.06
2022-12-11T05:10:12.137Z,99287.59
2022-12-11T05:12:39.828Z,99289.31
2022-12-11T05:15:08.827Z,99292.63
2022-12-11T05:17:37.243Z,99285.72
2022-12-11T05:20:05.577Z,99298.09
2022-12-11T05:22:33.338Z,99298.22
2022-12-11T05:25:01.157Z,99302.63
2022-12-11T05:27:29.291Z,99297.97
2022-12-11T05:29:59.515Z,99295.50
2022-12-11T05:32:27.567Z,99294.84
2022-12-11T05:34:56.283Z,99303.97
2022-12-11T05:37:24.044Z,99296.97
2022-12-11T05:39:51.902Z,99299.88
2022-12-11T05:42:24.014Z,99285.72
2022-12-11T05:44:54.896Z,99290.28
2022-12-11T05:47:22.776Z,99303.34
2022-12-11T05:49:51.055Z,99290.22
2022-12-11T05:52:19.300Z,99303.94
2022-12-11T05:54:50.543Z,99292.59
2022-12-11T05:57:18.495Z,99290.84
2022-12-11T05:59:46.771Z,99282.00
2022-12-11T06:02:14.733Z,99285.78
2022-12-11T06:04:42.652Z,99282.97
2022-12-11T06:07:10.441Z,99273.53
2022-12-11T06:09:38.279Z,99272.13
2022-12-11T06:12:06.353Z,99276.09
2022-12-11T06:14:34.229Z,99273.44
2022-12-11T06:17:02.043Z,99276.09
2022-12-11T06:19:36.450Z,99273.78
2022-12-11T06:22:05.297Z,99262.19
2022-12-11T06:24:32.875Z,99261.53
2022-12-11T06:27:00.649Z,99266.91
2022-12-11T06:29:28.671Z,99269.66
2022-12-11T06:31:56.554Z,99265.41
2022-12-11T06:34:24.737Z,99277.56
2022-12-11T06:36:52.557Z,99289.03
2022-12-11T06:39:20.627Z,99284.03
2022-12-11T06:41:48.414Z,99296.19
2022-12-11T06:44:16.908Z,99300.13
2022-12-11T06:46:44.915Z,99309.06
2022-12-11T06:49:12.797Z,99299.00
2022-12-11T06:51:40.596Z,99301.88
2022-12-11T06:54:08.443Z,99307.06
2022-12-11T06:56:36.608Z,99299.03
2022-12-11T06:59:07.447Z,99303.59
2022-12-11T07:01:36.073Z,99302.72
2022-12-11T07:04:03.876Z,99306.63
2022-12-11T07:06:31.727Z,99314.53
2022-12-11T07:08:59.565Z,99317.50
2022-12-11T07:11:28.167Z,99311.69
2022-12-11T07:14:00.196Z,99317.72
2022-12-11T07:16:28.099Z,99314.16
2022-12-11T07:18:55.956Z,99312.06
2022-12-11T07:21:23.835Z,99314.34
2022-12-11T07:23:51.929Z,99308.66
2022-12-11T07:26:21.514Z,99317.28
2022-12-11T07:28:49.419Z,99315.28
2022-12-11T07:31:28.507Z,99328.53
2022-12-11T07:33:58.452Z,99330.59
2022-12-11T07:36:27.336Z,99325.69
2022-12-11T07:38:55.487Z,99328.84
2022-12-11T07:41:23.752Z,99334.56
2022-12-11T07:43:55.488Z,99331.97
2022-12-11T07:46:26.070Z,99341.41
2022-12-11T07:48:54.308Z,99345.41
2022-12-11T07:51:26.566Z,99364.84
2022-12-11T07:53:57.311Z,99373.09
2022-12-11T07:56:26.286Z,99386.22
2022-12-11T07:58:54.760Z,99386.38
2022-12-11T08:01:28.103Z,99387.81
2022-12-11T08:03:57.015Z,99390.72
2022-12-11T08:06:27.682Z,99391.66
2022-12-11T08:08:57.310Z,99389.75
2022-12-11T08:11:25.852Z,99401.28
2022-12-11T08:13:54.776Z,99404.91
2022-12-11T08:16:22.903Z,99416.47
2022-12-11T08:18:50.696Z,99417.19
2022-12-11T08:21:26.215Z,99415.66
2022-12-11T08:23:54.924Z,99427.19
2022-12-11T08:26:29.928Z,99427.53
2022-12-11T08:28:58.573Z,99442.22
2022-12-11T08:31:26.237Z,99444.56
2022-12-11T08:33:56.106Z,99448.53
2022-12-11T08:36:24.376Z,99444.38
2022-12-11T08:38:54.041Z,99451.00
2022-12-11T08:41:25.196Z,99446.38
2022-12-11T08:43:56.327Z,99453.53
2022-12-11T08:46:26.641Z,99460.63
2022-12-11T08:48:55.681Z,99456.69
2022-12-11T08:51:27.762Z,99473.44
2022-12-11T08:53:57.810Z,99470.03
2022-12-11T08:56:27.172Z,99473.59
2022-12-11T08:58:55.296Z,99477.13
2022-12-11T09:01:26.141Z,99483.78
2022-12-11T09:03:55.465Z,99488.50
2022-12-11T09:06:26.072Z,99487.97
2022-12-11T09:08:54.724Z,99491.47
2022-12-11T09:11:25.791Z,99492.84
2022-12-11T09:13:54.352Z,99495.75
2022-12-11T09:16:24.414Z,99494.53
2022-12-11T09:18:54.331Z,99500.75
2022-12-11T09:21:25.543Z,99504.78
2022-12-11T09:23:55.384Z,99517.59
2022-12-11T09:26:23.865Z,99516.91
2022-12-11T09:28:53.460Z,99516.13
2022-12-11T09:31:24.909Z,99513.91
2022-12-11T09:33:55.646Z,99531.53
2022-12-11T09:36:23.707Z,99518.69
2022-12-11T09:38:51.903Z,99522.34
2022-12-11T09:41:22.515Z,99521.34
2022-12-11T09:44:08.284Z,99522.50
2022-12-11T09:46:38.036Z,99534.97
2022-12-11T09:49:16.729Z,99533.44
2022-12-11T09:51:50.428Z,99534.03
2022-12-11T09:54:18.287Z,99527.47
2022-12-11T09:56:56.238Z,99523.19
2022-12-11T09:59:44.075Z,99525.94
2022-12-11T10:02:36.475Z,99523.34
2022-12-11T10:05:13.126Z,99526.09
2022-12-11T10:07:43.845Z,99518.56
2022-12-11T10:10:20.603Z,99523.19
2022-12-11T10:13:06.703Z,99522.16
2022-12-11T10:15:44.056Z,99514.50
2022-12-11T10:18:18.129Z,99507.91
2022-12-11T10:20:47.417Z,99512.34
2022-12-11T10:23:52.781Z,99516.91
2022-12-11T10:26:22.703Z,99525.84
2022-12-11T10:28:50.880Z,99536.78
2022-12-11T10:31:24.766Z,99532.66
2022-12-11T10:33:56.654Z,99536.81
2022-12-11T10:36:34.818Z,99528.13
2022-12-11T10:39:03.878Z,99532.06
2022-12-11T10:41:35.856Z,99522.69
2022-12-11T10:44:16.038Z,99527.19
2022-12-11T10:46:45.088Z,99526.94
2022-12-11T10:49:27.909Z,99527.03
2022-12-11T10:51:56.748Z,99524.22
2022-12-11T10:54:24.945Z,99531.97
2022-12-11T10:56:53.688Z,99534.28
2022-12-11T10:59:25.927Z,99528.47
2022-12-11T11:01:54.062Z,99534.53
2022-12-11T11:04:35.228Z,99531.34
2022-12-11T11:07:21.059Z,99522.06
2022-12-11T11:09:49.210Z,99524.22
2022-12-11T11:12:24.691Z,99522.50
2022-12-11T11:15:04.556Z,99517.56
2022-12-11T11:17:47.189Z,99521.59
2022-12-11T11:20:24.765Z,99530.78
2022-12-11T11:22:56.152Z,99523.34
2022-12-11T11:25:26.887Z,99524.31
2022-12-11T11:28:06.308Z,99523.19
2022-12-11T11:30:39.918Z,99523.88
2022-12-11T11:33:16.276Z,99521.59
2022-12-11T11:36:03.203Z,99524.69
2022-12-11T11:39:05.815Z,99524.56
2022-12-11T11:41:51.965Z,99524.88
2022-12-11T11:44:31.216Z,99525.91
2022-12-11T11:47:06.136Z,99533.19
2022-12-11T11:50:03.305Z,99530.16
2022-12-11T11:52:49.393Z,99532.31
2022-12-11T11:55:22.349Z,99537.50
2022-12-11T11:58:08.179Z,99538.72
2022-12-11T12:00:36.097Z,99535.69
2022-12-11T12:03:11.814Z,99543.97
2022-12-11T12:06:15.623Z,99546.56
2022-12-11T12:08:52.062Z,99554.72
2022-12-11T12:11:40.030Z,99547.72
2022-12-11T12:14:50.500Z,99561.78
2022-12-11T12:17:16.676Z,99562.59
2022-12-11T12:20:13.953Z,99565.66
2022-12-11T12:23:06.716Z,99557.13
2022-12-11T12:25:45.517Z,99563.88
2022-12-11T12:28:32.197Z,99570.69
2022-12-11T12:31:29.522Z,99573.94
2022-12-11T12:34:26.317Z,99577.34
2022-12-11T12:37:07.978Z,99583.28
2022-12-11T12:39:59.735Z,99591.94
2022-12-11T12:42:35.511Z,99594.22
2022-12-11T12:45:16.066Z,99594.44
2022-12-11T12:47:51.772Z,99597.78
2022-12-11T12:50:25.140Z,99604.38
2022-12-11T12:52:55.577Z,99604.81
2022-12-11T12:55:31.996Z,99606.97
2022-12-11T12:58:05.185Z,99604.78
2022-12-11T13:00:33.116Z,99613.69
2022-12-11T13:03:36.770Z,99604.91
2022-12-11T13:06:07.855Z,99610.78
2022-12-11T13:08:48.978Z,99610.06
2022-12-11T13:11:20.316Z,99611.44
2022-12-11T13:14:01.847Z,99612.19
2022-12-11T13:16:39.022Z,99618.03
2022-12-11T13:19:27.772Z,99624.59
2022-12-11T13:22:05.214Z,99629.94
2022-12-11T13:24:34.792Z,99635.22
2022-12-11T13:27:25.399Z,99634.38
2022-12-11T13:30:06.245Z,99630.75
2022-12-11T13:32:34.817Z,99643.09
2022-12-11T13:35:06.626Z,99649.06
2022-12-11T13:37:41.718Z,99647.06
2022-12-11T13:40:26.072Z,99657.16
2022-12-11T13:43:06.226Z,99653.06
2022-12-11T13:45:47.136Z,99658.94
2022-12-11T13:48:29.036Z,99664.91
2022-12-11T13:50:58.873Z,99659.19
2022-12-11T13:53:27.007Z,99666.56
2022-12-11T13:55:59.128Z,99663.53
2022-12-11T13:58:28.436Z,99663.84
2022-12-11T14:01:27.845Z,99667.34
2022-12-11T14:03:58.786Z,99675.63
2022-12-11T14:06:28.796Z,99669.66
2022-12-11T14:09:00.708Z,99678.28
2022-12-11T14:11:36.353Z,99677.28
2022-12-11T14:14:09.651Z,99676.13
2022-12-11T14:16:37.685Z,99684.03
2022-12-11T14:19:11.023Z,99686.09
2022-12-11T14:21:39.254Z,99681.81
2022-12-11T14:24:12.931Z,99693.78
2022-12-11T14:26:40.609Z,99691.53
2022-12-11T14:29:26.945Z,99684.03
2022-12-11T14:31:55.183Z,99688.25
2022-12-11T14:34:29.470Z,99678.84
2022-12-11T14:36:58.004Z,99676.38
2022-12-11T14:39:31.603Z,99675.19
2022-12-11T14:42:10.785Z,99674.47
2022-12-11T14:44:48.387Z,99682.25
2022-12-11T14:47:21.854Z,99690.97
2022-12-11T14:50:01.094Z,99683.53
2022-12-11T14:52:33.248Z,99684.03
2022-12-11T14:55:07.786Z,99697.25
2022-12-11T14:57:36.527Z,99700.03
2022-12-11T15:00:05.852Z,99709.34
2022-12-11T15:02:37.222Z,99717.63
2022-12-11T15:05:13.523Z,99700.56
2022-12-11T15:07:55.833Z,99709.25
2022-12-11T15:10:27.887Z,99710.19
2022-12-11T15:12:56.161Z,99711.69
2022-12-11T15:15:24.625Z,99712.47
2022-12-11T15:17:54.067Z,99711.63
2022-12-11T15:20:25.716Z,99707.78
2022-12-11T15:22:54.435Z,99712.78
2022-12-11T15:25:26.865Z,99706.59
2022-12-11T15:27:59.961Z,99714.03
2022-12-11T15:30:31.667Z,99720.28
2022-12-11T15:33:11.488Z,99724.50
2022-12-11T15:35:52.770Z,99730.84
2022-12-11T15:38:40.652Z,99720.75
2022-12-11T15:41:17.000Z,99720.38
2022-12-11T15:43:45.422Z,99731.88
2022-12-11T15:46:13.638Z,99730.00
2022-12-11T15:48:41.537Z,99738.41
2022-12-11T15:51:11.044Z,99737.03
2022-12-11T15:53:39.305Z,99745.06
2022-12-11T15:56:07.194Z,99748.63
2022-12-11T15:58:35.899Z,99746.78
2022-12-11T16:01:04.586Z,99757.31
2022-12-11T16:03:33.339Z,99760.81
2022-12-11T16:06:01.187Z,99758.59
2022-12-11T16:08:29.361Z,99759.81
2022-12-11T16:10:57.657Z,99772.13
2022-12-11T16:13:25.792Z,99774.38
2022-12-11T16:15:54.835Z,99778.94
2022-12-11T16:18:23.924Z,99782.97
2022-12-11T16:20:52.395Z,99789.09
2022-12-11T16:23:21.113Z,99788.47
2022-12-11T16:25:50.059Z,99789.50
2022-12-11T16:28:22.004Z,99786.50
2022-12-11T16:30:50.458Z,99784.81
2022-12-11T16:33:18.916Z,99784.78
2022-12-11T16:35:48.073Z,99799.72
2022-12-11T16:38:16.576Z,99796.94
2022-12-11T16:40:47.211Z,99801.13
2022-12-11T16:43:15.243Z,99803.13
2022-12-11T16:45:43.413Z,99803.47
2022-12-11T16:48:11.608Z,99812.63
2022-12-11T16:50:40.263Z,99805.34
2022-12-11T16:53:08.275Z,99811.09
2022-12-11T16:55:36.027Z,99810.69
2022-12-11T16:58:04.079Z,99812.59
2022-12-11T17:00:31.971Z,99810.19
2022-12-11T17:02:59.991Z,99810.59
2022-12-11T17:05:28.454Z,99804.16
2022-12-11T17:07:56.667Z,99800.34
2022-12-11T17:10:24.919Z,99798.97
2022-12-11T17:12:53.015Z,99802.47
2022-12-11T17:15:21.231Z,99804.22
2022-12-11T17:17:49.238Z,99807.38
2022-12-11T17:20:18.411Z,99811.47
2022-12-11T17:22:46.452Z,99812.25
2022-12-11T17:25:19.626Z,99822.25
2022-12-11T17:27:48.088Z,99815.41
2022-12-11T17:30:16.000Z,99816.13
2022-12-11T17:32:48.216Z,99816.44
2022-12-11T17:35:16.538Z,99814.00
2022-12-11T17:37:44.971Z,99820.00
2022-12-11T17:40:13.112Z,99823.63
2022-12-11T17:42:44.272Z,99818.94
2022-12-11T17:45:12.620Z,99821.00
2022-12-11T17:47:40.894Z,99826.91
2022-12-11T17:50:09.342Z,99837.44
2022-12-11T17:52:43.853Z,99828.13
2022-12-11T17:55:12.470Z,99830.06
2022-12-11T17:57:40.678Z,99844.59
2022-12-11T18:00:09.229Z,99839.84
2022-12-11T18:02:40.384Z,99840.41
2022-12-11T18:05:08.495Z,99844.41
2022-12-11T18:07:38.306Z,99842.72
2022-12-11T18:10:06.485Z,99837.66
2022-12-11T18:12:34.673Z,99834.38
2022-12-11T18:15:02.959Z,99838.38
2022-12-11T18:17:31.512Z,99839.97
2022-12-11T18:19:59.108Z,99835.22
2022-12-11T18:22:26.734Z,99851.38
2022-12-11T18:24:58.287Z,99847.03
2022-12-11T18:27:26.140Z,99857.38
2022-12-11T18:29:53.794Z,99851.44
2022-12-11T18:32:24.714Z,99835.16
2022-12-11T18:34:52.491Z,99847.22
2022-12-11T18:37:27.604Z,99849.63
2022-12-11T18:39:56.090Z,99849.41
2022-12-11T18:42:32.886Z,99857.81
2022-12-11T18:45:07.953Z,99854.88
2022-12-11T18:47:51.801Z,99855.00
2022-12-11T18:50:20.027Z,99854.56
2022-12-11T18:52:48.018Z,99863.25
2022-12-11T18:55:15.770Z,99870.88
2022-12-11T18:57:43.624Z,99872.06
2022-12-11T19:00:12.111Z,99862.13
2022-12-11T19:02:40.067Z,99877.06
2022-12-11T19:05:08.186Z,99867.50
2022-12-11T19:07:36.062Z,99876.25
2022-12-11T19:10:05.477Z,99871.38
2022-12-11T19:12:33.528Z,99886.44
2022-12-11T19:15:01.408Z,99880.22
2022-12-11T19:17:29.515Z,99881.28
2022-12-11T19:19:57.384Z,99889.34
2022-12-11T19:22:25.179Z,99888.31
2022-12-11T19:24:53.047Z,99884.63
2022-12-11T19:27:20.826Z,99889.81
2022-12-11T19:29:48.875Z,99891.31
2022-12-11T19:32:16.759Z,99892.03
2022-12-11T19:34:44.544Z,99897.13
2022-12-11T19:37:12.697Z,99893.06
2022-12-11T19:39:40.804Z,99891.72
2022-12-11T19:42:08.544Z,99901.53
2022-12-11T19:44:36.352Z,99897.41
2022-12-11T19:47:04.716Z,99895.41
2022-12-11T19:49:33.048Z,99905.56
2022-12-11T19:52:01.245Z,99917.91
2022-12-11T19:54:29.016Z,99913.75
2022-12-11T19:56:57.168Z,99921.56
2022-12-11T19:59:25.422Z,99913.63
2022-12-11T20:01:53.498Z,99913.53
2022-12-11T20:04:21.273Z,99922.19
2022-12-11T20:06:49.181Z,99925.69
2022-12-11T20:09:17.114Z,99934.66
2022-12-11T20:11:45.619Z,99927.25
2022-12-11T20:14:25.133Z,99939.31
2022-12-11T20:19:41.840Z,99945.88
2022-12-11T20:22:10.479Z,99946.34
2022-12-11T20:24:38.575Z,99950.13
2022-12-11T20:27:06.513Z,99946.78
2022-12-11T20:29:34.766Z,99950.41
2022-12-11T20:32:03.142Z,99946.88
2022-12-11T20:34:32.025Z,99953.53
2022-12-11T20:37:00.632Z,99953.84
2022-12-11T20:39:29.622Z,99961.13
2022-12-11T20:41:57.635Z,99956.47
2022-12-11T20:44:25.973Z,99956.59
2022-12-11T20:46:53.895Z,99959.38
2022-12-11T20:49:22.233Z,99957.44
2022-12-11T20:51:50.176Z,99956.75
2022-12-11T20:54:21.184Z,99963.06
2022-12-11T20:56:52.698Z,99963.59
2022-12-11T20:59:22.088Z,99964.16
2022-12-11T21:01:50.525Z,99960.56
2022-12-11T21:04:18.694Z,99971.25
2022-12-11T21:06:46.881Z,99983.41
2022-12-11T21:09:18.842Z,99982.41
2022-12-11T21:11:46.599Z,99984.50
2022-12-11T21:14:16.435Z,99987.94
2022-12-11T21:16:45.165Z,99975.16
2022-12-11T21:19:16.876Z,99976.75
2022-12-11T21:21:46.216Z,99970.25
2022-12-11T21:24:26.663Z,99979.72
2022-12-11T21:26:57.221Z,99997.13
2022-12-11T21:29:29.380Z,99990.69
2022-12-11T21:31:57.615Z,99992.94
2022-12-11T21:34:25.931Z,99999.34
2022-12-11T21:36:57.066Z,99997.13
2022-12-11T21:39:26.153Z,100000.19
2022-12-11T21:41:54.595Z,100010.06
2022-12-11T21:47:12.162Z,100009.97
2022-12-11T21:49:39.781Z,100009.53
2022-12-11T21:52:09.244Z,100019.00
2022-12-11T21:54:38.863Z,100017.13
2022-12-11T21:57:07.123Z,100026.53
2022-12-11T21:59:35.143Z,100025.84
2022-12-11T22:02:02.875Z,100028.91
2022-12-11T22:04:30.701Z,100029.16
2022-12-11T22:06:59.075Z,100031.03
2022-12-11T22:09:26.805Z,100029.56
2022-12-11T22:11:58.388Z,100036.13
2022-12-11T22:14:26.628Z,100042.97
2022-12-11T22:16:54.932Z,100032.84
2022-12-11T22:19:25.522Z,100037.63
2022-12-11T22:21:55.601Z,100044.69
2022-12-11T22:24:23.486Z,100048.63
2022-12-11T22:26:51.539Z,100042.13
2022-12-11T22:29:19.290Z,100034.59
2022-12-11T22:31:47.502Z,100035.09
2022-12-11T22:34:15.636Z,100036.28
2022-12-11T22:36:43.784Z,100042.41
2022-12-11T22:39:12.341Z,100043.25
2022-12-11T22:41:43.822Z,100043.44
2022-12-11T22:44:17.527Z,100042.63
2022-12-11T22:46:49.639Z,100040.13
2022-12-11T22:49:22.436Z,100041.75
2022-12-11T22:51:50.635Z,100039.88
2022-12-11T22:54:22.318Z,100039.72
2022-12-11T22:56:50.893Z,100044.91
2022-12-11T22:59:18.915Z,100044.63
2022-12-11T23:01:46.787Z,100044.81
2022-12-11T23:04:14.756Z,100050.66
2022-12-11T23:06:42.606Z,100042.50
2022-12-11T23:09:10.718Z,100049.94
2022-12-11T23:11:39.462Z,100048.00
2022-12-11T23:14:11.084Z,100051.78
2022-12-11T23:16:39.542Z,100044.38
2022-12-11T23:19:07.511Z,100044.47
2022-12-11T23:21:35.506Z,100050.84
2022-12-11T23:24:03.969Z,100045.44
2022-12-11T23:26:31.931Z,100047.47
2022-12-11T23:29:00.401Z,100042.09
2022-12-11T23:31:28.746Z,100037.47
2022-12-11T23:33:56.966Z,100031.78
2022-12-11T23:36:25.980Z,100029.25
2022-12-11T23:38:54.965Z,100029.25
2022-12-11T23:41:23.391Z,100035.59
2022-12-11T23:43:51.422Z,100036.78
2022-12-11T23:46:23.888Z,100038.34
2022-12-11T23:48:53.073Z,100027.66
2022-12-11T23:51:23.092Z,100025.41
2022-12-11T23:53:51.499Z,100036.72
2022-12-11T23:56:25.826Z,100033.63
2022-12-11T23:58:54.401Z,100025.97
